Time;durP1;ratioP1;P1;durP2;ratioP2;P2;SDS_P1;SDS_P2;PMS_P1;PMS_P2;Temp;Humidity;BMP_temperature;BMP_pressure;BME280_temperature;BME280_humidity;BME280_pressure;Samples;Min_cycle;Max_cycle;Signal;HPM_P1;HPM_P2
2022/06/05 00:02:56;;;;;;;8.32;5.28;;;;;;;18.44;60.81;100094.72;5038609;28;20632;-83
2022/06/05 00:05:31;;;;;;;8.18;6.45;;;;;;;18.45;61.16;100085.31;5041223;28;20758;-83
2022/06/05 00:08:25;;;;;;;8.27;6.22;;;;;;;18.40;62.38;100093.72;5040284;28;20242;-83
2022/06/05 00:11:00;;;;;;;10.32;6.32;;;;;;;18.30;61.82;100083.72;5039599;28;20164;-83
2022/06/05 00:13:37;;;;;;;8.20;6.35;;;;;;;18.30;62.02;100095.59;5040870;28;20088;-83
2022/06/05 00:16:03;;;;;;;8.98;6.18;;;;;;;18.25;62.30;100103.13;5039096;28;20442;-84
2022/06/05 00:18:33;;;;;;;14.95;7.57;;;;;;;18.15;62.82;100096.69;5041098;28;20029;-84
2022/06/05 00:20:58;;;;;;;12.45;7.88;;;;;;;17.99;63.76;100098.94;5038764;28;20484;-83
2022/06/05 00:23:24;;;;;;;14.73;7.32;;;;;;;17.84;64.03;100089.84;5039708;28;20660;-82
2022/06/05 00:26:16;;;;;;;12.07;6.10;;;;;;;17.89;63.61;100088.94;5039535;28;20036;-83
2022/06/05 00:29:01;;;;;;;10.00;5.57;;;;;;;18.04;63.12;100090.56;5039516;28;20115;-83
2022/06/05 00:31:34;;;;;;;8.85;6.80;;;;;;;17.77;64.51;100083.13;5039752;28;20051;-84
2022/06/05 00:34:00;;;;;;;9.67;7.20;;;;;;;17.64;65.00;100079.22;5037774;28;20035;-83
2022/06/05 00:36:45;;;;;;;8.50;6.43;;;;;;;17.44;65.03;100071.03;5039770;28;20266;-83
2022/06/05 00:39:19;;;;;;;9.18;6.55;;;;;;;17.23;66.49;100079.66;5040596;28;20269;-83
2022/06/05 00:41:54;;;;;;;9.82;6.57;;;;;;;17.20;66.46;100066.50;5038640;28;20033;-83
2022/06/05 00:44:29;;;;;;;10.15;6.63;;;;;;;17.26;66.38;100059.78;5038430;28;20040;-83
2022/06/05 00:46:54;;;;;;;10.55;6.38;;;;;;;17.20;66.45;100071.19;5038765;28;20044;-83
2022/06/05 00:49:22;;;;;;;11.23;7.63;;;;;;;17.14;66.54;100068.53;5038607;28;20377;-83
2022/06/05 00:51:48;;;;;;;10.50;6.72;;;;;;;17.00;67.47;100073.94;5039536;28;20084;-83
2022/06/05 00:54:13;;;;;;;11.10;6.68;;;;;;;17.03;67.42;100067.84;5038941;28;20064;-84
2022/06/05 00:56:39;;;;;;;8.02;5.85;;;;;;;17.08;67.08;100058.69;5038824;28;20770;-83
2022/06/05 00:59:05;;;;;;;11.65;7.60;;;;;;;17.01;66.95;100061.00;5037708;28;20855;-83
2022/06/05 01:01:31;;;;;;;9.25;6.63;;;;;;;16.98;67.44;100053.34;5039370;28;20430;-83
2022/06/05 01:04:01;;;;;;;12.02;8.23;;;;;;;16.96;67.59;100045.41;5037346;28;20060;-83
2022/06/05 01:06:28;;;;;;;15.00;7.90;;;;;;;16.89;67.61;100040.28;5038826;28;20433;-82
2022/06/05 01:08:53;;;;;;;11.05;7.20;;;;;;;16.87;67.51;100041.69;5031093;28;20239;-82
2022/06/05 01:11:43;;;;;;;9.07;6.60;;;;;;;16.77;67.97;100045.44;5039933;28;20029;-83
2022/06/05 01:14:18;;;;;;;10.30;6.72;;;;;;;16.76;68.06;100041.84;5039011;28;21391;-84
2022/06/05 01:16:58;;;;;;;9.77;7.38;;;;;;;16.76;68.85;100041.06;5037621;28;20028;-83
2022/06/05 01:19:40;;;;;;;12.30;7.10;;;;;;;16.77;68.67;100031.66;5038542;28;20061;-84
2022/06/05 01:22:18;;;;;;;11.10;7.10;;;;;;;16.61;69.00;100034.66;5038852;28;20039;-83
2022/06/05 01:25:07;;;;;;;10.20;7.43;;;;;;;16.42;69.97;100029.16;5037685;28;20045;-84
2022/06/05 01:27:39;;;;;;;11.38;7.07;;;;;;;16.55;69.73;100030.34;5039063;28;20487;-83
2022/06/05 01:30:22;;;;;;;11.18;6.50;;;;;;;16.50;69.61;100027.66;5038483;28;20470;-84
2022/06/05 01:33:09;;;;;;;17.23;7.87;;;;;;;16.53;69.64;100032.59;5037887;28;20028;-84
2022/06/05 01:35:40;;;;;;;9.38;5.88;;;;;;;16.63;69.09;100032.44;5039105;28;20539;-82
2022/06/05 01:38:21;;;;;;;9.82;7.22;;;;;;;16.54;69.14;100039.72;5037868;28;20115;-82
2022/06/05 01:40:51;;;;;;;10.25;6.75;;;;;;;16.45;69.70;100032.13;5047116;28;20123;-83
2022/06/05 01:43:21;;;;;;;11.10;7.60;;;;;;;16.45;69.62;100026.63;5050303;28;20036;-83
2022/06/05 01:46:12;;;;;;;12.95;7.50;;;;;;;16.40;69.91;100018.47;5037933;28;20045;-83
2022/06/05 01:48:44;;;;;;;10.00;6.93;;;;;;;16.43;69.92;100012.34;5039015;28;20435;-83
2022/06/05 01:51:19;;;;;;;13.93;6.78;;;;;;;16.66;69.21;100015.31;5037298;28;20029;-83
2022/06/05 01:53:47;;;;;;;10.77;7.10;;;;;;;16.46;69.75;100005.44;5038442;28;20278;-83
2022/06/05 01:56:25;;;;;;;12.00;6.65;;;;;;;16.50;70.00;99997.41;5038433;28;20047;-83
2022/06/05 01:58:55;;;;;;;13.65;7.03;;;;;;;16.34;70.41;99984.72;5037879;28;20056;-84
2022/06/05 02:01:30;;;;;;;10.63;6.90;;;;;;;16.36;70.44;99983.59;5037115;28;20158;-84
2022/06/05 02:04:13;;;;;;;11.43;7.38;;;;;;;16.37;70.64;99980.56;5037443;28;20041;-84
2022/06/05 02:06:48;;;;;;;11.40;8.18;;;;;;;16.48;70.31;99975.69;5038606;28;20035;-83
2022/06/05 02:12:37;;;;;;;11.13;7.15;;;;;;;16.45;70.38;99966.09;5032547;28;20105;-84
2022/06/05 02:15:03;;;;;;;10.57;7.82;;;;;;;16.60;69.41;99958.72;5038176;28;20471;-82
2022/06/05 02:17:30;;;;;;;12.18;7.70;;;;;;;16.80;68.74;99954.78;5037116;28;20102;-83
2022/06/05 02:19:57;;;;;;;12.15;6.22;;;;;;;16.95;67.64;99943.81;5038236;28;20029;-83
2022/06/05 02:22:28;;;;;;;11.18;7.10;;;;;;;16.92;67.56;99945.25;5037806;28;20021;-82
2022/06/05 02:24:54;;;;;;;9.23;6.65;;;;;;;16.90;67.77;99951.03;5039634;28;20519;-81
2022/06/05 02:27:24;;;;;;;11.70;7.22;;;;;;;16.84;67.62;99943.97;5041924;28;20132;-84
2022/06/05 02:29:51;;;;;;;13.35;7.72;;;;;;;16.72;68.52;99940.94;5038722;28;20025;-83
2022/06/05 02:32:53;;;;;;;10.68;7.82;;;;;;;16.72;68.40;99932.66;5041706;28;20464;-82
2022/06/05 02:35:41;;;;;;;11.45;8.20;;;;;;;16.76;68.01;99931.75;5039422;28;20106;-84
2022/06/05 02:38:40;;;;;;;11.40;7.72;;;;;;;16.71;68.50;99925.50;5040643;28;20114;-84
2022/06/05 02:41:15;;;;;;;14.23;6.57;;;;;;;16.65;68.79;99924.78;5052667;28;20120;-83
2022/06/05 02:46:59;;;;;;;9.45;6.88;;;;;;;16.38;69.96;99899.66;5040488;28;20423;-83
2022/06/05 02:49:31;;;;;;;10.90;6.80;;;;;;;16.39;70.18;99901.28;5040821;28;20083;-83
2022/06/05 02:52:01;;;;;;;12.25;7.53;;;;;;;16.57;68.79;99891.34;5042062;28;20441;-83
2022/06/05 02:54:27;;;;;;;9.30;6.47;;;;;;;16.64;68.63;99885.44;5039772;28;20078;-83
2022/06/05 02:56:54;;;;;;;11.05;8.45;;;;;;;16.67;68.58;99884.84;5041022;28;20025;-83
2022/06/05 02:59:20;;;;;;;12.10;7.43;;;;;;;16.61;68.66;99868.72;5040985;28;20472;-83
2022/06/05 03:04:29;;;;;;;11.30;8.07;;;;;;;16.72;67.71;99869.34;5040925;28;20261;-83
2022/06/05 03:06:54;;;;;;;9.55;7.28;;;;;;;16.71;68.10;99867.72;5041533;28;20025;-83
2022/06/05 03:09:19;;;;;;;10.73;7.60;;;;;;;16.66;68.59;99865.88;5040910;28;20055;-84
2022/06/05 03:14:28;;;;;;;10.98;7.50;;;;;;;16.64;68.43;99851.59;5038626;28;20309;-84
2022/06/05 03:16:53;;;;;;;10.87;7.57;;;;;;;16.63;68.13;99848.03;5040191;28;20021;-83
2022/06/05 03:19:19;;;;;;;10.23;7.63;;;;;;;16.59;68.57;99851.69;5041927;28;20827;-83
2022/06/05 03:21:44;;;;;;;12.95;7.85;;;;;;;16.42;69.09;99842.06;5040367;28;20325;-83
2022/06/05 03:24:10;;;;;;;11.23;7.80;;;;;;;16.54;68.26;99847.91;5040280;28;20033;-83
2022/06/05 03:26:35;;;;;;;11.82;6.72;;;;;;;16.13;70.36;99838.44;5040219;28;20820;-83
2022/06/05 03:29:02;;;;;;;12.93;8.45;;;;;;;16.16;70.80;99837.03;5040688;28;20448;-83
2022/06/05 03:31:28;;;;;;;13.48;7.50;;;;;;;16.10;70.64;99830.81;5040447;28;20033;-83
2022/06/05 03:33:53;;;;;;;14.23;9.20;;;;;;;16.18;70.56;99832.88;5040488;28;20051;-83
2022/06/05 03:36:18;;;;;;;10.67;7.20;;;;;;;16.31;69.47;99844.22;5038164;28;20745;-83
2022/06/05 03:38:44;;;;;;;10.73;7.45;;;;;;;16.41;69.21;99848.72;5039541;28;20285;-84
2022/06/05 03:41:10;;;;;;;11.77;7.82;;;;;;;16.57;68.28;99849.25;5052228;28;20078;-82
2022/06/05 03:43:37;;;;;;;10.63;7.80;;;;;;;16.53;68.65;99856.47;5048739;28;20032;-83
2022/06/05 03:46:05;;;;;;;11.82;7.85;;;;;;;16.49;68.71;99849.94;5040318;28;20059;-83
2022/06/05 03:48:30;;;;;;;12.55;7.75;;;;;;;16.57;68.42;99852.00;5040675;28;20496;-82
2022/06/05 03:50:56;;;;;;;12.05;7.63;;;;;;;16.59;68.97;99844.25;5040708;28;20417;-84
2022/06/05 03:53:21;;;;;;;10.50;6.63;;;;;;;16.71;67.72;99840.19;5040491;28;20472;-82
2022/06/05 03:55:46;;;;;;;10.03;7.20;;;;;;;16.80;67.51;99835.63;5039653;28;20267;-83
2022/06/05 03:58:12;;;;;;;11.50;8.50;;;;;;;16.71;68.28;99840.19;5040716;28;20282;-83
2022/06/05 04:00:37;;;;;;;14.38;8.18;;;;;;;16.65;68.65;99837.53;5039704;28;20274;-83
2022/06/05 04:03:03;;;;;;;11.50;7.97;;;;;;;16.74;67.90;99839.59;5040241;28;20064;-83
2022/06/05 04:05:28;;;;;;;15.25;9.25;;;;;;;16.68;68.07;99836.09;5040393;28;20266;-82
2022/06/05 04:07:53;;;;;;;11.77;8.00;;;;;;;16.80;67.72;99827.38;5040091;28;20029;-82
2022/06/05 04:10:19;;;;;;;11.98;8.45;;;;;;;16.89;67.42;99821.94;5038529;28;20355;-82
2022/06/05 04:12:46;;;;;;;14.55;8.05;;;;;;;16.85;67.50;99816.25;5039389;28;20064;-83
2022/06/05 04:15:12;;;;;;;13.43;8.68;;;;;;;16.84;67.84;99817.34;5040354;28;20048;-82
2022/06/05 04:17:38;;;;;;;13.20;7.82;;;;;;;16.77;67.96;99828.78;5039091;28;20028;-83
2022/06/05 04:20:04;;;;;;;11.68;7.03;;;;;;;16.80;68.09;99835.63;5039865;28;20519;-83
2022/06/05 04:22:30;;;;;;;11.98;7.25;;;;;;;16.59;68.81;99841.50;5038720;28;20503;-83
2022/06/05 04:24:55;;;;;;;11.18;7.68;;;;;;;16.57;68.83;99836.31;5039762;28;20072;-83
2022/06/05 04:27:20;;;;;;;11.87;7.40;;;;;;;16.66;68.29;99839.16;5040193;28;20029;-83
2022/06/05 04:29:45;;;;;;;10.70;6.97;;;;;;;16.72;68.93;99839.09;5039380;28;20654;-83
2022/06/05 04:32:11;;;;;;;14.57;6.47;;;;;;;16.76;68.20;99837.34;5039544;28;20033;-83
2022/06/05 04:34:37;;;;;;;12.93;8.10;;;;;;;16.75;68.69;99833.78;5038753;28;20273;-82
2022/06/05 04:37:02;;;;;;;13.38;7.43;;;;;;;16.62;69.29;99834.59;5039998;28;20028;-82
2022/06/05 04:39:28;;;;;;;12.68;6.75;;;;;;;16.73;68.63;99827.75;5039283;28;20506;-82
2022/06/05 04:41:53;;;;;;;9.95;7.20;;;;;;;16.81;68.82;99823.47;5057271;28;20029;-83
2022/06/05 04:44:19;;;;;;;10.57;8.05;;;;;;;16.86;68.64;99820.59;5041975;28;20419;-82
2022/06/05 04:49:47;;;;;;;11.90;7.22;;;;;;;16.85;68.93;99826.44;5035775;28;20446;-81
2022/06/05 04:52:13;;;;;;;11.43;7.13;;;;;;;16.82;68.88;99825.09;5038522;28;20025;-83
2022/06/05 04:54:38;;;;;;;13.55;6.47;;;;;;;16.80;68.47;99828.16;5039374;28;20295;-83
2022/06/05 04:57:04;;;;;;;9.23;7.20;;;;;;;16.96;67.99;99829.81;5039108;28;20464;-83
2022/06/05 04:59:30;;;;;;;12.05;7.18;;;;;;;17.01;67.56;99832.44;5039204;28;20314;-82
2022/06/05 05:01:55;;;;;;;13.40;8.18;;;;;;;17.02;68.27;99839.59;5038316;28;20037;-82
2022/06/05 05:04:20;;;;;;;10.63;7.30;;;;;;;16.78;69.14;99848.88;5037921;28;20060;-83
2022/06/05 05:06:45;;;;;;;10.07;7.40;;;;;;;16.68;70.37;99842.44;5038609;28;20258;-82
2022/06/05 05:09:11;;;;;;;9.98;6.72;;;;;;;16.74;70.69;99839.59;5038024;28;20913;-83
2022/06/05 05:11:37;;;;;;;13.63;7.10;;;;;;;16.59;71.83;99844.25;5039452;28;20029;-83
2022/06/05 05:14:03;;;;;;;9.15;6.93;;;;;;;16.62;71.60;99846.41;5038066;28;20037;-83
2022/06/05 05:16:29;;;;;;;10.25;7.38;;;;;;;16.65;71.19;99844.97;5038052;28;20098;-83
2022/06/05 05:18:55;;;;;;;14.60;8.10;;;;;;;16.83;70.84;99846.00;5038462;28;20028;-83
2022/06/05 05:21:22;;;;;;;9.68;6.82;;;;;;;16.85;70.31;99843.78;5038018;28;20059;-83
2022/06/05 05:23:49;;;;;;;10.98;6.72;;;;;;;16.88;70.32;99850.59;5037879;28;20037;-83
2022/06/05 05:26:21;;;;;;;11.93;8.40;;;;;;;16.94;70.48;99863.16;5038361;28;20017;-82
2022/06/05 05:28:47;;;;;;;10.02;6.72;;;;;;;17.01;69.92;99859.97;5038854;28;20032;-83
2022/06/05 05:31:25;;;;;;;11.73;7.18;;;;;;;17.14;70.10;99867.47;5037980;28;20040;-83
2022/06/05 05:33:50;;;;;;;21.85;8.05;;;;;;;17.23;69.71;99869.47;5037895;28;20563;-83
2022/06/05 05:36:18;;;;;;;10.65;7.82;;;;;;;17.26;69.16;99874.38;5037892;28;20039;-83
2022/06/05 05:44:13;;;;;;;14.55;8.23;;;;;;;17.51;69.67;99872.22;5042224;28;20462;-83
2022/06/05 05:46:38;;;;;;;12.02;6.78;;;;;;;17.58;68.45;99864.34;5037928;28;20033;-82
2022/06/05 05:49:04;;;;;;;9.55;6.60;;;;;;;17.69;67.75;99861.34;5038346;28;20021;-83
2022/06/05 05:51:29;;;;;;;9.02;6.70;;;;;;;17.78;67.85;99869.69;5038284;28;20437;-84
2022/06/05 05:53:54;;;;;;;13.05;7.45;;;;;;;17.80;67.54;99857.22;5038162;28;20041;-83
2022/06/05 05:56:19;;;;;;;9.93;7.33;;;;;;;17.81;67.22;99855.28;5052858;28;20057;-83
2022/06/05 05:58:46;;;;;;;9.57;6.70;;;;;;;17.83;67.03;99858.53;5038550;28;20296;-83
2022/06/05 06:01:11;;;;;;;10.18;7.57;;;;;;;17.84;67.21;99855.47;5041817;28;20262;-82
2022/06/05 06:03:37;;;;;;;9.47;7.33;;;;;;;17.91;66.88;99863.31;5042092;28;20502;-83
2022/06/05 06:06:03;;;;;;;11.37;8.00;;;;;;;17.91;66.33;99849.53;5041857;28;20346;-82
2022/06/05 06:08:29;;;;;;;12.50;7.72;;;;;;;17.95;65.84;99842.25;5042160;28;20381;-83
2022/06/05 06:10:55;;;;;;;10.18;7.25;;;;;;;17.96;65.91;99843.06;5042507;28;20071;-82
2022/06/05 06:13:20;;;;;;;9.90;7.03;;;;;;;18.02;65.81;99846.53;5050056;28;20127;-82
2022/06/05 06:15:45;;;;;;;11.27;8.43;;;;;;;18.05;66.32;99834.84;5041352;28;20278;-83
2022/06/05 06:18:11;;;;;;;9.00;6.82;;;;;;;18.01;65.42;99836.59;5040761;28;20037;-82
2022/06/05 06:20:36;;;;;;;10.25;7.13;;;;;;;18.12;65.78;99832.50;5041173;28;20107;-83
2022/06/05 06:26:06;;;;;;;11.32;7.28;;;;;;;18.10;65.63;99820.94;5039159;28;20312;-84
2022/06/05 06:28:31;;;;;;;10.38;7.18;;;;;;;18.13;65.50;99814.78;5041650;28;20029;-82
2022/06/05 06:30:56;;;;;;;10.73;7.53;;;;;;;18.23;65.39;99813.75;5041164;28;20028;-83
2022/06/05 06:33:22;;;;;;;12.73;7.67;;;;;;;18.24;65.68;99803.53;5041278;28;20042;-83
2022/06/05 06:35:48;;;;;;;10.15;7.35;;;;;;;18.22;65.93;99809.38;5042940;28;20025;-82
2022/06/05 06:38:13;;;;;;;13.35;7.60;;;;;;;18.24;65.83;99807.09;5044145;28;20282;-84
2022/06/05 06:40:40;;;;;;;10.50;7.45;;;;;;;18.39;65.59;99807.81;5046200;28;20024;-83
2022/06/05 06:43:06;;;;;;;9.93;6.78;;;;;;;18.38;65.75;99800.69;5035857;28;20482;-82
2022/06/05 06:45:32;;;;;;;12.57;7.78;;;;;;;18.36;65.81;99789.16;5029829;28;20186;-83
2022/06/05 06:47:58;;;;;;;10.48;7.65;;;;;;;18.36;65.80;99795.47;5036832;28;20577;-84
2022/06/05 06:50:23;;;;;;;11.35;7.40;;;;;;;18.32;66.22;99788.97;5032189;28;20064;-84
2022/06/05 06:52:48;;;;;;;12.80;8.52;;;;;;;18.31;66.57;99781.81;5027547;28;20474;-86
2022/06/05 06:55:18;;;;;;;11.30;8.03;;;;;;;18.30;66.13;99772.75;5034634;28;20045;-92
2022/06/05 06:57:45;;;;;;;9.93;7.45;;;;;;;18.15;66.81;99764.81;5036904;28;20297;-75
2022/06/05 07:00:15;;;;;;;11.00;7.43;;;;;;;18.22;66.26;99765.22;5022375;28;20120;-76
2022/06/05 07:02:41;;;;;;;11.02;6.97;;;;;;;18.29;66.74;99762.00;5024000;28;20498;-77
2022/06/05 07:05:07;;;;;;;12.45;7.68;;;;;;;18.38;66.23;99753.75;5043137;28;20029;-82
2022/06/05 07:07:32;;;;;;;13.13;8.70;;;;;;;18.47;65.75;99746.31;5044283;28;20586;-82
2022/06/05 07:09:57;;;;;;;15.77;8.05;;;;;;;18.48;65.34;99745.22;5043086;28;20033;-83
2022/06/05 07:12:22;;;;;;;10.23;7.67;;;;;;;18.58;64.89;99746.03;5027999;28;20495;-83
2022/06/05 07:14:48;;;;;;;12.23;7.70;;;;;;;18.69;64.75;99741.06;5042726;28;20045;-81
2022/06/05 07:17:13;;;;;;;9.90;7.30;;;;;;;18.67;64.82;99733.88;5043064;28;20270;-82
2022/06/05 07:19:38;;;;;;;13.15;9.20;;;;;;;18.66;64.80;99725.94;5043264;28;20646;-81
2022/06/05 07:25:07;;;;;;;9.73;6.82;;;;;;;18.71;65.38;99711.19;5028308;28;20059;-88
2022/06/05 07:27:33;;;;;;;13.65;8.70;;;;;;;18.73;64.85;99715.22;5026540;28;20014;-86
2022/06/05 07:29:58;;;;;;;20.48;9.20;;;;;;;18.55;65.45;99709.66;5041778;28;20041;-87
2022/06/05 07:32:24;;;;;;;10.25;7.05;;;;;;;18.58;65.26;99699.13;5042831;28;20044;-88
2022/06/05 07:34:49;;;;;;;16.30;8.80;;;;;;;18.67;64.96;99691.69;5047671;28;20056;-86
2022/06/05 07:37:16;;;;;;;9.55;7.13;;;;;;;18.73;64.95;99698.66;5047551;28;20028;-87
2022/06/05 07:39:43;;;;;;;13.55;9.02;;;;;;;18.75;65.77;99699.16;5043730;28;20207;-83
2022/06/05 07:42:09;;;;;;;12.88;7.97;;;;;;;18.76;65.28;99694.44;5042424;28;20033;-80
2022/06/05 07:44:36;;;;;;;12.80;7.93;;;;;;;18.78;65.52;99690.22;5042114;28;20043;-84
2022/06/05 07:47:08;;;;;;;10.80;7.63;;;;;;;18.86;65.09;99680.31;5043686;28;20456;-83
2022/06/05 07:49:37;;;;;;;9.43;7.47;;;;;;;18.84;65.31;99682.59;5042570;28;20040;-81
2022/06/05 07:54:47;;;;;;;13.98;10.27;;;;;;;18.97;65.18;99680.84;5023714;28;20056;-84
2022/06/05 07:57:15;;;;;;;10.77;7.47;;;;;;;19.05;65.24;99697.72;5022047;28;20025;-82
2022/06/05 07:59:46;;;;;;;14.85;8.25;;;;;;;18.97;65.34;99700.16;5021974;28;20814;-79
2022/06/05 08:02:18;;;;;;;13.48;7.57;;;;;;;19.11;65.06;99702.78;5021678;28;20033;-83
2022/06/05 08:04:45;;;;;;;8.95;6.43;;;;;;;19.16;65.31;99698.25;5040044;28;20071;-85
2022/06/05 08:07:13;;;;;;;11.07;7.68;;;;;;;19.34;64.71;99704.59;5040148;28;20033;-84
2022/06/05 08:09:41;;;;;;;9.45;7.00;;;;;;;19.41;64.64;99709.63;5039870;28;20144;-82
2022/06/05 08:12:08;;;;;;;12.00;7.60;;;;;;;19.42;64.49;99701.03;5040504;28;20033;-83
2022/06/05 08:14:35;;;;;;;10.80;8.25;;;;;;;19.45;64.76;99710.59;5037648;28;20041;-83
2022/06/05 08:17:06;;;;;;;11.80;8.80;;;;;;;19.52;64.51;99707.34;5031475;28;20040;-83
2022/06/05 08:19:32;;;;;;;10.00;7.60;;;;;;;19.58;64.81;99692.22;5020114;28;20051;-84
2022/06/05 08:21:57;;;;;;;8.15;6.45;;;;;;;19.73;64.45;99693.63;5019542;28;20030;-83
2022/06/05 08:24:23;;;;;;;14.68;8.70;;;;;;;19.78;64.98;99684.34;5036416;28;20048;-82
2022/06/05 08:26:49;;;;;;;10.10;7.10;;;;;;;19.83;64.62;99676.69;5039429;28;20028;-83
2022/06/05 08:32:18;;;;;;;9.80;8.00;;;;;;;19.92;64.54;99678.63;5037073;28;20383;-81
2022/06/05 08:34:44;;;;;;;8.70;6.57;;;;;;;19.99;64.64;99678.13;5039166;28;20202;-81
2022/06/05 08:42:53;;;;;;;;;;;;;;;20.19;63.93;99668.28;5040072;28;20032;-81
2022/06/05 08:45:24;;;;;;;12.30;7.75;;;;;;;20.24;64.69;99673.63;5039043;28;19970;-82
2022/06/05 08:48:02;;;;;;;12.75;8.50;;;;;;;20.27;64.16;99672.16;5031250;28;20061;-82
2022/06/05 08:50:43;;;;;;;11.85;8.32;;;;;;;20.37;63.44;99668.19;5019777;28;20038;-82
2022/06/05 08:53:20;;;;;;;12.30;9.07;;;;;;;20.50;63.67;99667.13;5025936;28;20129;-82
2022/06/05 08:55:47;;;;;;;12.10;7.45;;;;;;;20.59;63.70;99667.09;5039828;28;20332;-82
2022/06/05 08:58:23;;;;;;;9.57;7.20;;;;;;;20.70;63.51;99658.41;5038873;28;20094;-83
2022/06/05 09:01:03;;;;;;;10.95;7.65;;;;;;;20.76;63.29;99659.81;5039789;28;20056;-82
2022/06/05 09:03:42;;;;;;;9.90;7.68;;;;;;;20.81;62.85;99656.84;5039000;28;20039;-82
2022/06/05 09:06:14;;;;;;;10.15;6.82;;;;;;;20.79;63.81;99669.44;5038944;28;20033;-83
2022/06/05 09:08:42;;;;;;;11.07;7.50;;;;;;;20.75;64.00;99670.09;5039008;28;20025;-82
2022/06/05 09:11:28;;;;;;;9.55;7.40;;;;;;;20.78;64.23;99674.16;5037472;28;20483;-81
2022/06/05 09:14:29;;;;;;;10.23;7.38;;;;;;;20.84;64.43;99670.03;5038049;28;20063;-84
2022/06/05 09:17:02;;;;;;;9.85;7.82;;;;;;;20.97;63.74;99670.13;5039380;28;20060;-82
2022/06/05 09:19:30;;;;;;;17.27;7.78;;;;;;;20.98;63.81;99666.22;5038907;28;20295;-84
2022/06/05 09:22:10;;;;;;;11.02;8.30;;;;;;;20.92;63.69;99668.34;5040041;28;20499;-83
2022/06/05 09:25:12;;;;;;;10.35;7.13;;;;;;;20.83;64.34;99660.09;5038349;28;20090;-82
2022/06/05 09:27:46;;;;;;;10.20;8.15;;;;;;;20.82;64.90;99666.78;5036708;28;20718;-83
2022/06/05 09:30:22;;;;;;;9.68;8.05;;;;;;;20.79;65.33;99670.22;5038774;28;20405;-83
2022/06/05 09:33:02;;;;;;;9.55;7.07;;;;;;;20.78;64.99;99663.06;5037388;28;20405;-84
2022/06/05 09:35:40;;;;;;;12.23;8.60;;;;;;;20.68;65.88;99667.06;5037239;28;20121;-82
2022/06/05 09:38:14;;;;;;;11.88;7.80;;;;;;;20.57;66.29;99663.03;5037895;28;20039;-82
2022/06/05 09:41:02;;;;;;;11.02;8.00;;;;;;;20.39;66.69;99668.69;5035811;28;20159;-83
2022/06/05 09:43:45;;;;;;;12.85;8.63;;;;;;;20.37;66.64;99666.25;5037873;28;20036;-81
2022/06/05 09:46:43;;;;;;;11.53;8.67;;;;;;;20.37;67.25;99669.03;5037391;28;20082;-83
2022/06/05 09:49:18;;;;;;;12.00;8.20;;;;;;;20.29;67.49;99669.88;5037389;28;20052;-85
2022/06/05 09:51:45;;;;;;;8.93;7.72;;;;;;;20.37;67.75;99663.47;5037150;28;20041;-85
2022/06/05 09:54:32;;;;;;;11.15;7.47;;;;;;;20.42;69.07;99666.06;5036363;28;20041;-85
2022/06/05 10:00:08;;;;;;;22.95;7.60;;;;;;;20.09;67.83;99677.78;5036313;28;20115;-84
2022/06/05 10:02:35;;;;;;;14.32;8.93;;;;;;;19.85;67.84;99678.31;5037295;28;20450;-84
2022/06/05 10:05:10;;;;;;;9.57;6.75;;;;;;;19.89;68.19;99674.53;5039854;28;20047;-85
2022/06/05 10:07:44;;;;;;;12.18;7.53;;;;;;;19.97;69.31;99670.16;5038861;28;20025;-84
2022/06/05 10:10:25;;;;;;;10.07;7.60;;;;;;;19.98;70.10;99668.19;5037249;28;20037;-82
2022/06/05 10:12:58;;;;;;;9.65;6.88;;;;;;;20.02;71.09;99663.59;5022007;28;20052;-84
2022/06/05 10:15:32;;;;;;;14.30;9.13;;;;;;;20.01;72.70;99671.13;5037902;28;20628;-88
2022/06/05 10:18:03;;;;;;;11.75;8.32;;;;;;;19.91;74.48;99658.44;5030517;28;20044;-80
2022/06/05 10:20:47;;;;;;;10.43;7.53;;;;;;;19.88;75.84;99667.41;5019316;28;20083;-80
2022/06/05 10:23:35;;;;;;;9.77;8.30;;;;;;;19.82;76.22;99660.44;5025533;28;20064;-80
2022/06/05 10:26:17;;;;;;;9.50;7.90;;;;;;;19.82;76.62;99661.25;5038635;28;20067;-72
2022/06/05 10:28:45;;;;;;;11.23;8.43;;;;;;;19.77;77.74;99666.16;5038190;28;20507;-72
2022/06/05 10:31:26;;;;;;;14.80;10.75;;;;;;;19.90;78.97;99658.78;5037536;28;20102;-73
2022/06/05 10:34:06;;;;;;;11.35;9.77;;;;;;;19.88;78.66;99656.34;5036841;28;20563;-74
2022/06/05 10:37:03;;;;;;;12.60;9.98;;;;;;;19.74;79.05;99651.03;5038504;28;20025;-73
2022/06/05 10:39:41;;;;;;;14.55;10.25;;;;;;;19.47;79.31;99653.03;5011306;28;20443;-79
2022/06/05 10:42:25;;;;;;;13.98;10.30;;;;;;;19.45;79.98;99650.59;5036979;28;20033;-80
2022/06/05 10:45:06;;;;;;;13.00;9.00;;;;;;;19.48;80.55;99649.13;5038028;28;20045;-81
2022/06/05 10:48:01;;;;;;;14.25;10.38;;;;;;;19.39;82.14;99646.38;5040502;28;20049;-81
2022/06/05 10:50:42;;;;;;;13.15;10.15;;;;;;;19.40;81.50;99645.25;5041499;28;20041;-89
2022/06/05 10:53:19;;;;;;;12.90;9.85;;;;;;;19.33;81.88;99647.69;5042491;28;20037;-87
2022/06/05 10:56:05;;;;;;;12.93;10.05;;;;;;;19.29;82.01;99641.19;5024319;28;20044;-85
2022/06/05 10:58:39;;;;;;;12.45;10.35;;;;;;;19.17;83.60;99631.63;5040959;28;20083;-86
2022/06/05 11:01:23;;;;;;;;;;;;;;;19.12;83.53;99628.97;5042943;28;20260;-85
2022/06/05 11:04:19;;;;;;;15.20;9.70;;;;;;;18.92;84.42;99630.44;5041973;28;20394;-86
2022/06/05 11:07:09;;;;;;;13.32;10.23;;;;;;;18.99;84.99;99622.50;5042082;28;20062;-90
2022/06/05 11:09:57;;;;;;;13.77;9.43;;;;;;;19.00;85.59;99621.34;5042703;28;20357;-92
2022/06/05 11:15:24;;;;;;;14.43;10.52;;;;;;;19.37;84.59;99621.03;5042335;28;20060;-93
2022/06/05 11:18:18;;;;;;;16.25;11.55;;;;;;;19.57;83.34;99618.69;5034509;28;20512;-91
2022/06/05 11:20:52;;;;;;;13.25;10.82;;;;;;;19.57;83.10;99602.91;5022708;28;20041;-91
2022/06/05 11:23:20;;;;;;;14.48;9.48;;;;;;;19.69;82.97;99593.13;5030192;28;20029;-90
2022/06/05 11:26:09;;;;;;;12.85;11.05;;;;;;;19.69;82.60;99593.94;5042207;28;20071;-91
2022/06/05 11:28:35;;;;;;;14.95;11.07;;;;;;;19.81;82.78;99593.22;5040509;28;20456;-92
2022/06/05 11:31:03;;;;;;;17.70;11.03;;;;;;;19.86;82.34;99589.47;5043224;28;20128;-90
2022/06/05 11:33:30;;;;;;;13.30;10.43;;;;;;;19.84;82.44;99594.53;5047736;28;20085;-91
2022/06/05 11:36:13;;;;;;;14.32;10.20;;;;;;;19.82;82.40;99585.75;5042562;28;20037;-92
2022/06/05 11:38:57;;;;;;;15.90;11.45;;;;;;;19.81;82.64;99589.69;5039033;28;20040;-92
2022/06/05 11:41:37;;;;;;;12.63;10.90;;;;;;;19.88;83.16;99580.84;5038276;28;20047;-91
2022/06/05 11:44:21;;;;;;;14.80;11.60;;;;;;;19.93;82.49;99570.41;5038092;28;20037;-92
2022/06/05 11:50:25;;;;;;;14.30;11.15;;;;;;;20.41;80.96;99545.41;5037263;28;20052;-93
2022/06/05 11:53:07;;;;;;;12.90;9.80;;;;;;;20.39;81.04;99541.34;5039163;28;20037;-93
2022/06/05 11:56:00;;;;;;;14.85;10.27;;;;;;;20.43;80.28;99550.59;5037223;28;20032;-92
2022/06/05 11:58:56;;;;;;;17.20;10.45;;;;;;;20.38;81.27;99545.28;5036360;28;20040;-91
2022/06/05 12:01:28;;;;;;;13.75;10.55;;;;;;;20.35;79.49;99541.22;5035939;28;20045;-92
2022/06/05 12:04:10;;;;;;;14.32;11.23;;;;;;;20.40;80.68;99534.69;5040514;28;20021;-91
2022/06/05 12:06:45;;;;;;;14.18;10.55;;;;;;;20.72;78.87;99537.00;5038413;28;20044;-92
2022/06/05 12:09:14;;;;;;;18.75;11.25;;;;;;;20.93;77.09;99533.41;5041249;28;20037;-91
2022/06/05 12:12:08;;;;;;;14.80;11.20;;;;;;;21.00;77.00;99533.69;5041375;28;20064;-90
2022/06/05 12:14:41;;;;;;;13.52;10.63;;;;;;;21.30;75.84;99533.53;5038522;28;20060;-92
2022/06/05 12:17:20;;;;;;;13.00;10.93;;;;;;;21.46;75.19;99532.84;5039836;28;20561;-90
2022/06/05 12:20:18;;;;;;;15.38;9.82;;;;;;;21.61;74.60;99525.00;5041880;28;20033;-91
2022/06/05 12:22:50;;;;;;;11.20;8.65;;;;;;;21.67;73.99;99523.63;5042060;28;20413;-91
2022/06/05 12:25:26;;;;;;;11.63;9.35;;;;;;;21.53;73.54;99522.00;5039466;28;20052;-90
2022/06/05 12:31:20;;;;;;;10.63;8.85;;;;;;;21.29;74.43;99514.47;5035581;28;20096;-91
2022/06/05 12:34:00;;;;;;;12.32;9.88;;;;;;;21.18;74.18;99503.81;5040023;28;20036;-90
2022/06/05 12:36:41;;;;;;;17.13;9.13;;;;;;;21.15;74.45;99509.25;5041228;28;20047;-91
2022/06/05 12:39:22;;;;;;;12.45;9.30;;;;;;;21.20;74.05;99511.78;5040606;28;20043;-89